Time;durP1;ratioP1;P1;durP2;ratioP2;P2;SDS_P1;SDS_P2;PMS_P1;PMS_P2;Temp;Humidity;BMP_temperature;BMP_pressure;BME280_temperature;BME280_humidity;BME280_pressure;Samples;Min_cycle;Max_cycle;Signal;HPM_P1;HPM_P2
2021/04/06 00:01:30;;;;;;;4.10;1.20;;;3.10;43.20;;;;;;2604276;52;21961;-62
2021/04/06 00:03:56;;;;;;;3.37;1.00;;;3.10;43.70;;;;;;2352002;53;21479;-61
2021/04/06 00:06:23;;;;;;;3.72;1.00;;;3.00;43.00;;;;;;2594257;52;21834;-61
2021/04/06 00:08:49;;;;;;;5.28;1.00;;;3.00;43.10;;;;;;2346182;53;20988;-62
2021/04/06 00:11:15;;;;;;;4.37;1.23;;;3.00;43.10;;;;;;2365721;53;20942;-63
2021/04/06 00:13:42;;;;;;;3.12;0.85;;;2.90;43.10;;;;;;2367578;53;20914;-63
2021/04/06 00:16:08;;;;;;;2.35;0.90;;;2.90;43.20;;;;;;2365905;53;21750;-64
2021/04/06 00:18:34;;;;;;;4.10;1.05;;;2.90;43.30;;;;;;2348839;53;20924;-62
2021/04/06 00:21:01;;;;;;;4.53;0.88;;;2.80;43.20;;;;;;2366988;53;20913;-64
2021/04/06 00:23:28;;;;;;;4.37;1.00;;;2.80;43.20;;;;;;2619300;52;20997;-64
2021/04/06 00:25:56;;;;;;;3.83;0.95;;;2.80;43.20;;;;;;2597622;52;21772;-64
2021/04/06 00:28:26;;;;;;;3.25;1.00;;;2.80;43.30;;;;;;2615807;52;20919;-62
2021/04/06 00:30:53;;;;;;;3.00;0.90;;;2.80;43.40;;;;;;2367059;53;20945;-63
2021/04/06 00:33:28;;;;;;;2.20;0.80;;;2.70;43.30;;;;;;2351706;53;21035;-65
2021/04/06 00:35:58;;;;;;;2.25;0.70;;;2.70;43.50;;;;;;2367013;53;21000;-62
2021/04/06 00:38:27;;;;;;;5.72;0.80;;;2.70;43.40;;;;;;2353617;53;21522;-64
2021/04/06 00:40:57;;;;;;;2.78;0.80;;;2.70;43.40;;;;;;2613298;52;21434;-64
2021/04/06 00:43:34;;;;;;;3.08;0.82;;;2.60;43.40;;;;;;2351115;53;20981;-63
2021/04/06 00:46:01;;;;;;;3.62;0.90;;;2.60;43.60;;;;;;2619539;52;21449;-64
2021/04/06 00:48:27;;;;;;;2.78;0.80;;;2.60;43.50;;;;;;2367626;53;21034;-64
2021/04/06 00:52:55;;;;;;;2.95;0.85;;;2.60;43.50;;;;;;2367321;53;20925;-63
2021/04/06 00:55:22;;;;;;;1.60;0.70;;;2.50;44.10;;;;;;2358921;53;20922;-64
2021/04/06 00:57:48;;;;;;;3.15;1.20;;;2.50;43.40;;;;;;2358308;53;20996;-66
2021/04/06 01:01:16;;;;;;;3.67;1.77;;;2.50;43.50;;;;;;2367631;53;20980;-62
2021/04/06 01:03:42;;;;;;;2.70;1.00;;;2.40;43.60;;;;;;2370156;53;20963;-63
2021/04/06 01:06:09;;;;;;;2.65;0.88;;;2.40;43.40;;;;;;2354261;53;20958;-62
2021/04/06 01:08:39;;;;;;;2.83;1.10;;;2.40;43.40;;;;;;2595934;52;20981;-64
2021/04/06 01:11:06;;;;;;;4.80;1.42;;;2.40;43.60;;;;;;2351654;54;20930;-62
2021/04/06 01:13:38;;;;;;;3.97;1.08;;;2.30;43.60;;;;;;2618789;52;21402;-63
2021/04/06 01:16:05;;;;;;;3.10;1.10;;;2.30;43.70;;;;;;2367204;53;21604;-64
2021/04/06 01:18:31;;;;;;;3.78;1.10;;;2.30;43.70;;;;;;2356913;53;20986;-63
2021/04/06 01:20:58;;;;;;;3.12;0.90;;;2.20;43.70;;;;;;2356309;53;20937;-62
2021/04/06 01:23:25;;;;;;;4.05;1.17;;;2.20;43.70;;;;;;2367506;53;20953;-61
2021/04/06 01:25:57;;;;;;;3.97;0.88;;;2.20;43.70;;;;;;2368282;53;20981;-62
2021/04/06 01:28:28;;;;;;;1.85;0.77;;;2.20;43.80;;;;;;2368123;53;21856;-62
2021/04/06 01:30:56;;;;;;;3.83;0.80;;;2.10;43.80;;;;;;2367588;53;20973;-62
2021/04/06 01:33:24;;;;;;;4.75;0.90;;;2.10;43.80;;;;;;2367225;53;21397;-62
2021/04/06 01:35:55;;;;;;;2.10;0.80;;;2.10;43.90;;;;;;2618897;52;21526;-61
2021/04/06 01:38:25;;;;;;;3.97;0.90;;;2.10;44.10;;;;;;2612529;52;21050;-64
2021/04/06 01:40:52;;;;;;;2.50;0.85;;;2.10;44.20;;;;;;2603826;52;20993;-64
2021/04/06 01:43:22;;;;;;;3.10;0.73;;;2.10;44.30;;;;;;2359517;53;20934;-63
2021/04/06 01:45:53;;;;;;;2.95;0.73;;;2.10;44.30;;;;;;2362570;53;20914;-61
2021/04/06 01:48:20;;;;;;;2.17;0.80;;;2.10;44.40;;;;;;2598068;52;20905;-63
2021/04/06 01:50:50;;;;;;;2.70;0.70;;;2.10;44.30;;;;;;2369624;53;20921;-63
2021/04/06 01:53:18;;;;;;;5.87;1.37;;;2.10;44.40;;;;;;2349218;53;20873;-62
2021/04/06 01:55:49;;;;;;;1.90;0.65;;;2.10;44.30;;;;;;2367404;53;20905;-62
2021/04/06 01:58:16;;;;;;;4.12;0.90;;;2.10;44.30;;;;;;2367612;53;20965;-61
2021/04/06 02:01:19;;;;;;;2.42;0.80;;;2.10;44.20;;;;;;2618552;52;20886;-63
2021/04/06 02:04:01;;;;;;;1.98;0.70;;;2.10;44.20;;;;;;2367673;53;20961;-63
2021/04/06 02:06:29;;;;;;;3.60;0.80;;;2.10;44.20;;;;;;2367749;53;20946;-65
2021/04/06 02:08:55;;;;;;;2.33;0.73;;;2.10;44.20;;;;;;2368103;53;20878;-64
2021/04/06 02:11:23;;;;;;;4.78;1.00;;;2.10;44.10;;;;;;2350502;53;21046;-63
2021/04/06 02:13:50;;;;;;;3.10;0.80;;;2.10;44.20;;;;;;2612082;52;20976;-64
2021/04/06 02:16:16;;;;;;;3.00;0.75;;;2.10;44.20;;;;;;2367708;53;20925;-61
2021/04/06 02:18:43;;;;;;;4.07;0.90;;;2.10;44.20;;;;;;2367462;53;20934;-63
2021/04/06 02:21:12;;;;;;;2.53;1.10;;;2.00;44.10;;;;;;2359049;53;21059;-64
2021/04/06 02:23:44;;;;;;;4.70;1.10;;;2.00;44.10;;;;;;2601519;52;20978;-61
2021/04/06 02:26:13;;;;;;;2.25;0.90;;;2.00;44.10;;;;;;2364464;53;20906;-61
2021/04/06 02:28:40;;;;;;;4.07;1.08;;;2.00;44.20;;;;;;2351918;53;20894;-63
2021/04/06 02:31:06;;;;;;;2.45;0.98;;;2.00;44.20;;;;;;2352972;53;20981;-64
2021/04/06 02:33:34;;;;;;;2.83;1.00;;;1.90;44.10;;;;;;2360973;53;21009;-64
2021/04/06 02:36:08;;;;;;;4.53;0.93;;;1.90;44.10;;;;;;2367547;53;20909;-63
2021/04/06 02:39:10;;;;;;;3.95;1.00;;;1.90;44.20;;;;;;2367214;53;21060;-61
2021/04/06 02:41:36;;;;;;;3.85;0.95;;;1.90;44.70;;;;;;2353164;53;22248;-61
2021/04/06 02:44:06;;;;;;;2.50;0.73;;;1.80;44.20;;;;;;2351022;53;20874;-61
2021/04/06 02:46:35;;;;;;;4.40;1.48;;;1.80;44.90;;;;;;2619252;52;20889;-62
2021/04/06 02:49:01;;;;;;;3.40;2.05;;;1.80;44.20;;;;;;2355261;53;20974;-62
2021/04/06 02:51:30;;;;;;;6.18;2.08;;;1.80;44.20;;;;;;2364313;53;21716;-63
2021/04/06 02:53:56;;;;;;;4.40;1.50;;;1.80;44.30;;;;;;2619147;52;21664;-62
2021/04/06 02:56:32;;;;;;;3.87;1.77;;;1.80;44.20;;;;;;2361080;53;21465;-61
2021/04/06 02:59:14;;;;;;;4.90;1.15;;;1.70;44.30;;;;;;2361160;53;20897;-64
2021/04/06 03:01:41;;;;;;;3.08;0.90;;;1.70;44.50;;;;;;2358427;53;21009;-63
2021/04/06 03:04:27;;;;;;;2.97;1.08;;;1.70;44.30;;;;;;2361168;53;20989;-62
2021/04/06 03:06:56;;;;;;;3.45;1.23;;;1.60;44.50;;;;;;2360363;53;20970;-61
2021/04/06 03:09:23;;;;;;;5.10;1.20;;;1.60;44.30;;;;;;2348963;53;20977;-60
2021/04/06 03:11:51;;;;;;;3.17;1.17;;;1.60;44.30;;;;;;2360490;53;20969;-64
2021/04/06 03:14:20;;;;;;;2.50;0.90;;;1.60;44.40;;;;;;2353007;53;20942;-63
2021/04/06 03:16:49;;;;;;;4.15;1.15;;;1.60;44.40;;;;;;2563563;53;20972;-63
2021/04/06 03:19:15;;;;;;;5.00;1.25;;;1.60;44.40;;;;;;2346480;54;20914;-61
2021/04/06 03:21:42;;;;;;;3.33;0.93;;;1.50;44.30;;;;;;2347875;53;20932;-62
2021/04/06 03:24:10;;;;;;;3.17;1.08;;;1.50;44.40;;;;;;2361046;53;20909;-62
2021/04/06 03:26:36;;;;;;;3.55;1.02;;;1.50;44.50;;;;;;2360238;53;20926;-65
2021/04/06 03:29:06;;;;;;;3.35;1.02;;;1.50;44.50;;;;;;2353762;53;20977;-62
2021/04/06 03:31:33;;;;;;;4.40;1.10;;;1.50;44.60;;;;;;2368423;53;20909;-63
2021/04/06 03:34:00;;;;;;;2.22;0.85;;;1.50;44.60;;;;;;2619025;52;20929;-61
2021/04/06 03:36:42;;;;;;;4.95;1.00;;;1.50;44.70;;;;;;2595466;52;20945;-62
2021/04/06 03:39:09;;;;;;;3.50;1.00;;;1.50;44.90;;;;;;2367152;53;20913;-63
2021/04/06 03:41:35;;;;;;;4.07;1.08;;;1.50;44.80;;;;;;2616819;52;20976;-62
2021/04/06 03:44:11;;;;;;;8.50;1.17;;;1.50;44.80;;;;;;2347081;53;20932;-63
2021/04/06 03:46:40;;;;;;;4.37;1.20;;;1.60;45.20;;;;;;2365765;53;20940;-60
2021/04/06 03:49:45;;;;;;;3.28;1.00;;;1.60;45.10;;;;;;2368869;53;20905;-62
2021/04/06 03:52:12;;;;;;;4.07;1.10;;;1.70;45.50;;;;;;2356312;53;20977;-61
2021/04/06 03:54:47;;;;;;;4.53;1.10;;;1.80;45.20;;;;;;2367505;53;21020;-61
2021/04/06 03:57:46;;;;;;;4.80;0.98;;;1.80;45.80;;;;;;2367862;53;20878;-62
2021/04/06 04:00:13;;;;;;;4.15;0.90;;;1.90;45.40;;;;;;2598009;52;20974;-62
2021/04/06 04:02:40;;;;;;;3.97;1.20;;;1.90;45.10;;;;;;2365856;53;20874;-62
2021/04/06 04:05:07;;;;;;;6.80;2.10;;;1.90;45.10;;;;;;2367324;53;20889;-63
2021/04/06 04:07:34;;;;;;;4.97;1.92;;;2.00;45.10;;;;;;2355798;53;21002;-61
2021/04/06 04:10:04;;;;;;;5.00;1.65;;;2.00;45.10;;;;;;2347185;53;21040;-63
2021/04/06 04:12:30;;;;;;;3.78;1.40;;;2.00;45.10;;;;;;2355498;53;20950;-63
2021/04/06 04:14:58;;;;;;;5.12;1.50;;;2.10;45.20;;;;;;2596006;52;20878;-63
2021/04/06 04:17:25;;;;;;;6.62;1.30;;;2.10;45.20;;;;;;2619330;52;20938;-61
2021/04/06 04:19:51;;;;;;;4.85;1.33;;;2.10;45.20;;;;;;2351706;54;20943;-63
2021/04/06 04:22:17;;;;;;;4.65;1.40;;;2.20;45.30;;;;;;2354714;53;21785;-63
2021/04/06 04:24:44;;;;;;;3.60;1.23;;;2.30;45.30;;;;;;2361363;53;20905;-63
2021/04/06 04:27:10;;;;;;;6.28;1.48;;;2.40;45.40;;;;;;2367988;53;21016;-63
2021/04/06 04:29:38;;;;;;;3.55;1.30;;;2.40;45.40;;;;;;2367926;53;20972;-60
2021/04/06 04:32:13;;;;;;;6.72;1.40;;;2.40;45.40;;;;;;2364972;53;20958;-62
2021/04/06 04:34:40;;;;;;;6.43;1.40;;;2.50;45.40;;;;;;2350231;53;20924;-62
2021/04/06 04:37:07;;;;;;;6.32;1.90;;;2.60;45.50;;;;;;2367203;53;21784;-63
2021/04/06 04:39:33;;;;;;;4.90;1.70;;;2.60;45.40;;;;;;2361055;53;20981;-61
2021/04/06 04:42:01;;;;;;;5.65;1.85;;;2.70;45.50;;;;;;2608258;52;20977;-62
2021/04/06 04:44:28;;;;;;;6.05;1.80;;;2.70;45.40;;;;;;2367563;53;21248;-63
2021/04/06 04:46:55;;;;;;;5.62;1.45;;;2.80;45.40;;;;;;2369721;53;20959;-62
2021/04/06 04:49:22;;;;;;;4.72;1.73;;;2.80;45.30;;;;;;2368299;53;21833;-61
2021/04/06 04:51:48;;;;;;;6.03;1.90;;;2.90;45.30;;;;;;2590012;53;21454;-63
2021/04/06 04:54:15;;;;;;;6.32;2.30;;;2.90;45.30;;;;;;2608762;52;20994;-62
2021/04/06 04:56:42;;;;;;;5.93;1.65;;;2.90;45.30;;;;;;2355663;53;20994;-61
2021/04/06 04:59:08;;;;;;;5.32;2.00;;;3.00;45.30;;;;;;2364200;53;20905;-62
2021/04/06 05:01:34;;;;;;;5.93;1.45;;;3.00;45.20;;;;;;2367489;53;20925;-63
2021/04/06 05:04:02;;;;;;;5.18;1.48;;;3.10;45.20;;;;;;2367112;53;20912;-60
2021/04/06 05:06:29;;;;;;;4.53;1.23;;;3.20;45.20;;;;;;2619527;52;21020;-63
2021/04/06 05:08:56;;;;;;;9.02;1.58;;;3.20;45.10;;;;;;2575541;53;20932;-62
2021/04/06 05:11:22;;;;;;;7.60;1.62;;;3.20;45.20;;;;;;2340920;54;21026;-61
2021/04/06 05:13:50;;;;;;;4.43;1.40;;;3.20;45.10;;;;;;2613630;52;20946;-61
2021/04/06 05:16:17;;;;;;;5.35;1.50;;;3.20;45.10;;;;;;2371815;53;20949;-64
2021/04/06 05:18:44;;;;;;;5.15;1.30;;;3.30;45.00;;;;;;2623915;52;20906;-62
2021/04/06 05:21:11;;;;;;;5.43;1.25;;;3.30;44.90;;;;;;2355980;53;20982;-64
2021/04/06 05:23:37;;;;;;;4.40;1.52;;;3.40;45.00;;;;;;2619271;52;20906;-63
2021/04/06 05:26:03;;;;;;;5.12;1.15;;;3.40;45.00;;;;;;2624824;52;20985;-61
2021/04/06 05:28:30;;;;;;;3.83;1.60;;;3.40;45.00;;;;;;2371538;54;20985;-61
2021/04/06 05:30:57;;;;;;;4.85;1.70;;;3.50;45.00;;;;;;2351494;54;20942;-63
2021/04/06 05:33:25;;;;;;;4.10;1.60;;;3.50;44.80;;;;;;2624570;52;20934;-63
2021/04/06 05:35:51;;;;;;;6.75;1.98;;;3.60;44.90;;;;;;2624221;52;21375;-61
2021/04/06 05:38:18;;;;;;;6.15;2.10;;;3.60;44.80;;;;;;2371715;53;21479;-63
2021/04/06 05:40:44;;;;;;;4.47;1.48;;;3.60;44.80;;;;;;2352408;53;20955;-61
2021/04/06 05:43:14;;;;;;;3.15;1.30;;;3.70;44.80;;;;;;2371813;53;21423;-62
2021/04/06 05:45:44;;;;;;;5.75;1.40;;;3.70;44.80;;;;;;2624074;52;20970;-62
2021/04/06 05:48:14;;;;;;;6.28;1.40;;;3.80;44.90;;;;;;2624922;52;20958;-62
2021/04/06 05:50:44;;;;;;;5.97;1.60;;;3.80;44.80;;;;;;2371397;53;21779;-63
2021/04/06 05:53:11;;;;;;;6.62;1.40;;;3.80;44.80;;;;;;2624572;52;21037;-68
2021/04/06 05:55:40;;;;;;;5.15;1.37;;;3.90;44.80;;;;;;2371499;53;20950;-63
2021/04/06 05:58:09;;;;;;;5.40;1.80;;;3.90;44.70;;;;;;2617046;52;21058;-61
2021/04/06 06:00:35;;;;;;;5.37;1.30;;;3.90;44.60;;;;;;2355308;53;20914;-64
2021/04/06 06:03:03;;;;;;;8.57;1.50;;;4.00;44.70;;;;;;2603983;52;20927;-63
2021/04/06 06:05:29;;;;;;;4.32;1.35;;;4.00;44.70;;;;;;2353357;53;21458;-61
2021/04/06 06:07:56;;;;;;;5.55;1.62;;;4.00;44.70;;;;;;2604289;52;20903;-63
2021/04/06 06:10:32;;;;;;;6.87;1.87;;;4.00;44.60;;;;;;2604992;52;20914;-62
2021/04/06 06:13:24;;;;;;;8.30;1.73;;;4.10;44.70;;;;;;2575568;52;20926;-62
2021/04/06 06:16:22;;;;;;;5.78;1.60;;;4.10;44.70;;;;;;2371543;53;20954;-63
2021/04/06 06:19:10;;;;;;;5.78;1.60;;;4.10;44.70;;;;;;2614767;52;21011;-61
2021/04/06 06:21:50;;;;;;;3.22;1.33;;;4.20;44.70;;;;;;2362886;53;20954;-61
2021/04/06 06:24:50;;;;;;;4.32;1.70;;;4.20;44.60;;;;;;2624795;52;20914;-64
2021/04/06 06:27:48;;;;;;;4.15;1.42;;;4.30;44.80;;;;;;2372379;53;21799;-64
2021/04/06 06:30:49;;;;;;;4.95;1.58;;;4.30;44.60;;;;;;2623729;52;20978;-64
2021/04/06 06:33:24;;;;;;;7.12;1.70;;;4.40;44.80;;;;;;2371420;53;20930;-62
2021/04/06 06:36:28;;;;;;;4.45;1.42;;;4.40;44.70;;;;;;2596013;52;21566;-65
2021/04/06 06:39:04;;;;;;;5.07;1.67;;;4.40;44.60;;;;;;2371608;53;20981;-62
2021/04/06 06:41:30;;;;;;;4.35;1.45;;;4.50;44.60;;;;;;2372117;53;20955;-64
2021/04/06 06:43:57;;;;;;;5.15;2.47;;;4.50;44.60;;;;;;2358855;53;20971;-62
2021/04/06 06:46:28;;;;;;;7.07;2.65;;;4.60;44.60;;;;;;2574263;53;20974;-63
2021/04/06 06:49:14;;;;;;;9.48;3.30;;;4.60;44.60;;;;;;2362460;53;20962;-63
2021/04/06 06:51:41;;;;;;;12.50;4.03;;;4.70;44.80;;;;;;2624192;52;20902;-63
2021/04/06 06:54:07;;;;;;;7.20;2.60;;;4.70;44.60;;;;;;2351825;53;20963;-62
2021/04/06 06:56:40;;;;;;;10.02;2.62;;;4.80;44.60;;;;;;2624638;52;21006;-62
2021/04/06 06:59:08;;;;;;;4.37;1.95;;;4.80;44.60;;;;;;2595239;52;20981;-63
2021/04/06 07:01:36;;;;;;;3.70;1.77;;;4.90;44.60;;;;;;2619485;52;21522;-62
2021/04/06 07:04:12;;;;;;;3.97;1.70;;;5.10;44.80;;;;;;2354009;53;21072;-62
2021/04/06 07:06:43;;;;;;;4.85;1.75;;;5.00;44.80;;;;;;2335845;54;20989;-61
2021/04/06 07:09:26;;;;;;;5.47;1.90;;;5.10;44.70;;;;;;2351322;54;21026;-61
2021/04/06 07:12:01;;;;;;;5.72;1.80;;;5.10;44.70;;;;;;2357351;53;21828;-62
2021/04/06 07:14:28;;;;;;;6.20;1.58;;;5.20;44.50;;;;;;2351552;53;20955;-64
2021/04/06 07:17:05;;;;;;;5.45;1.75;;;5.30;44.50;;;;;;2623502;52;20942;-62
2021/04/06 07:19:51;;;;;;;6.72;1.92;;;5.30;44.40;;;;;;2349867;54;20942;-61
2021/04/06 07:22:19;;;;;;;5.70;1.92;;;5.30;44.30;;;;;;2614054;52;20966;-62
2021/04/06 07:24:45;;;;;;;4.25;1.50;;;5.40;44.30;;;;;;2372258;53;20965;-62
2021/04/06 07:27:13;;;;;;;4.30;1.55;;;5.40;44.40;;;;;;2372162;53;20973;-64
2021/04/06 07:29:40;;;;;;;4.62;1.30;;;5.40;44.40;;;;;;2372597;53;20918;-64
2021/04/06 07:32:13;;;;;;;6.35;1.60;;;5.50;44.50;;;;;;2623630;52;20942;-61
2021/04/06 07:34:39;;;;;;;;;;;5.70;44.70;;;;;;2375122;53;20947;-64
2021/04/06 07:37:05;;;;;;;3.97;1.33;;;5.70;44.70;;;;;;2624153;52;20109;-61
2021/04/06 07:39:32;;;;;;;5.90;2.03;;;5.70;44.50;;;;;;2364734;54;21007;-61
2021/04/06 07:41:59;;;;;;;7.05;2.20;;;5.80;44.40;;;;;;2610284;52;21041;-64
2021/04/06 07:44:25;;;;;;;5.97;1.77;;;5.90;44.50;;;;;;2365150;53;20934;-62
2021/04/06 07:46:52;;;;;;;6.20;1.87;;;5.90;44.60;;;;;;2581563;52;20946;-64
2021/04/06 07:49:39;;;;;;;3.78;1.37;;;6.00;44.60;;;;;;2365716;53;21051;-62
2021/04/06 07:52:18;;;;;;;7.50;1.87;;;6.10;44.60;;;;;;2347025;53;20957;-64
2021/04/06 07:54:49;;;;;;;6.78;1.65;;;6.20;44.50;;;;;;2373434;53;20974;-63
2021/04/06 07:57:15;;;;;;;3.55;1.85;;;6.30;44.50;;;;;;2356442;53;20974;-63
2021/04/06 07:59:44;;;;;;;7.00;1.73;;;6.30;44.50;;;;;;2369905;53;22093;-61
2021/04/06 08:02:25;;;;;;;6.65;1.70;;;6.40;45.10;;;;;;2368143;53;21035;-63
2021/04/06 08:04:52;;;;;;;6.65;1.75;;;6.40;44.40;;;;;;2357396;53;21016;-61
2021/04/06 08:07:32;;;;;;;5.72;1.60;;;6.50;44.20;;;;;;2598727;52;20939;-63
2021/04/06 08:13:33;;;;;;;4.35;1.58;;;6.50;44.00;;;;;;2605046;52;20987;-65
2021/04/06 08:16:16;;;;;;;4.40;1.60;;;6.50;44.30;;;;;;2583278;53;20911;-64
2021/04/06 08:18:52;;;;;;;6.03;1.85;;;6.50;43.70;;;;;;2363215;53;20998;-62
2021/04/06 08:21:24;;;;;;;8.63;1.90;;;6.50;43.70;;;;;;2351319;53;20985;-61
2021/04/06 08:23:52;;;;;;;7.53;1.73;;;6.50;43.60;;;;;;2360691;53;20954;-63
2021/04/06 08:26:32;;;;;;;5.90;1.80;;;6.50;43.60;;;;;;2614828;52;21001;-63
2021/04/06 08:29:27;;;;;;;4.43;1.42;;;6.50;43.70;;;;;;2352833;54;20966;-62
2021/04/06 08:32:13;;;;;;;3.42;1.42;;;6.50;43.90;;;;;;2370744;53;21021;-62
2021/04/06 08:34:53;;;;;;;5.85;1.77;;;6.60;44.30;;;;;;2371025;53;21012;-64
2021/04/06 08:37:42;;;;;;;5.72;1.80;;;6.60;44.20;;;;;;2371750;53;20973;-63
2021/04/06 08:40:09;;;;;;;5.95;1.42;;;6.70;44.10;;;;;;2369060;53;21826;-63
2021/04/06 08:42:35;;;;;;;6.45;1.50;;;6.80;44.20;;;;;;2354864;53;20922;-63
2021/04/06 08:45:02;;;;;;;4.72;1.58;;;6.90;44.40;;;;;;2370739;53;20987;-63
2021/04/06 08:47:45;;;;;;;6.43;1.90;;;7.00;44.40;;;;;;2353060;53;21509;-62
2021/04/06 08:50:42;;;;;;;5.32;1.75;;;7.10;44.60;;;;;;2356412;53;21006;-61
2021/04/06 08:53:09;;;;;;;5.75;1.55;;;7.30;44.80;;;;;;2625648;52;20966;-64
2021/04/06 08:55:35;;;;;;;4.03;1.70;;;7.50;45.00;;;;;;2349475;53;22145;-61
2021/04/06 08:58:02;;;;;;;4.50;2.22;;;7.60;44.80;;;;;;2624758;52;21040;-63
2021/04/06 09:00:28;;;;;;;10.05;2.65;;;7.80;44.80;;;;;;2371493;53;21459;-62
2021/04/06 09:03:04;;;;;;;4.97;2.08;;;8.00;45.60;;;;;;2372067;53;21076;-65
2021/04/06 09:05:31;;;;;;;6.35;1.80;;;8.40;46.60;;;;;;2371994;53;21017;-63
2021/04/06 09:07:57;;;;;;;5.55;1.48;;;8.70;46.90;;;;;;2370090;53;21011;-62
2021/04/06 09:10:23;;;;;;;6.10;1.85;;;9.10;47.00;;;;;;2334083;54;20997;-64
2021/04/06 09:12:51;;;;;;;3.37;1.30;;;9.60;46.80;;;;;;2364857;53;20963;-62
2021/04/06 09:15:20;;;;;;;6.37;2.05;;;9.90;46.60;;;;;;2582967;52;20918;-63
2021/04/06 09:17:47;;;;;;;5.35;1.50;;;10.30;45.10;;;;;;2550257;54;20934;-65
2021/04/06 09:20:16;;;;;;;4.82;1.30;;;10.60;44.70;;;;;;2320313;53;20905;-64
2021/04/06 09:22:48;;;;;;;5.55;1.40;;;10.90;43.90;;;;;;2330408;53;20976;-65
2021/04/06 09:25:33;;;;;;;5.03;1.50;;;11.00;43.10;;;;;;2337835;54;21016;-61
2021/04/06 09:28:04;;;;;;;4.97;1.23;;;11.00;42.20;;;;;;2591292;53;20928;-65
2021/04/06 09:30:33;;;;;;;5.22;1.65;;;11.10;42.40;;;;;;2344798;53;20924;-63
2021/04/06 09:33:16;;;;;;;4.18;1.35;;;11.10;41.90;;;;;;2593768;52;21437;-62
2021/04/06 09:35:47;;;;;;;4.30;1.30;;;11.20;41.60;;;;;;2363004;53;21002;-65
2021/04/06 09:38:16;;;;;;;4.05;1.27;;;11.20;41.70;;;;;;2314677;53;1683009;-62
2021/04/06 09:40:44;;;;;;;6.12;1.73;;;11.30;41.60;;;;;;2584895;53;21496;-65
2021/04/06 09:43:13;;;;;;;6.60;1.67;;;11.30;41.60;;;;;;2344220;53;20936;-63
2021/04/06 09:45:39;;;;;;;4.00;1.70;;;11.40;41.80;;;;;;2324867;54;20948;-62
2021/04/06 09:48:07;;;;;;;3.70;1.25;;;11.50;41.80;;;;;;2590902;53;20908;-62
2021/04/06 09:50:34;;;;;;;6.62;1.45;;;11.60;41.80;;;;;;2356494;53;21005;-62
2021/04/06 09:53:00;;;;;;;5.95;1.40;;;11.60;41.30;;;;;;2576250;53;20964;-65
2021/04/06 09:55:28;;;;;;;4.00;1.60;;;11.70;41.00;;;;;;2579411;53;20999;-66
2021/04/06 09:57:59;;;;;;;5.85;1.60;;;11.60;40.30;;;;;;2572769;53;20940;-64
2021/04/06 10:00:28;;;;;;;4.15;1.48;;;11.60;40.20;;;;;;2343353;55;20993;-62
2021/04/06 10:03:08;;;;;;;2.67;0.93;;;11.60;40.10;;;;;;2343426;55;21889;-63
2021/04/06 10:05:35;;;;;;;5.72;1.35;;;11.50;39.80;;;;;;2343731;53;20917;-64
2021/04/06 10:08:02;;;;;;;6.75;1.67;;;11.50;40.10;;;;;;2585998;52;20951;-64
2021/04/06 10:10:31;;;;;;;6.72;1.87;;;11.50;40.20;;;;;;2358933;53;20901;-64
2021/04/06 10:12:59;;;;;;;3.53;1.42;;;11.50;40.20;;;;;;2597698;52;20925;-63
2021/04/06 10:15:30;;;;;;;4.25;1.50;;;11.60;39.80;;;;;;2341591;53;21448;-63
2021/04/06 10:18:06;;;;;;;5.35;1.52;;;11.60;39.50;;;;;;2344351;53;20904;-63
2021/04/06 10:20:38;;;;;;;4.07;1.20;;;11.50;39.40;;;;;;2346144;54;20957;-62
2021/04/06 10:23:06;;;;;;;3.33;1.20;;;11.50;39.50;;;;;;2595262;52;21589;-65
2021/04/06 10:25:38;;;;;;;2.65;1.10;;;11.50;39.60;;;;;;2609155;52;21740;-63
2021/04/06 10:28:06;;;;;;;5.87;1.67;;;11.50;39.40;;;;;;2606035;52;20993;-62
2021/04/06 10:30:47;;;;;;;4.05;1.30;;;11.50;39.40;;;;;;2619021;52;20957;-64
2021/04/06 10:33:21;;;;;;;4.22;1.70;;;11.50;39.40;;;;;;2369893;53;20906;-64
2021/04/06 10:35:51;;;;;;;5.30;1.48;;;11.40;39.50;;;;;;2353722;53;21774;-62
2021/04/06 10:38:20;;;;;;;7.37;1.73;;;11.50;40.30;;;;;;2371354;53;20976;-64
2021/04/06 10:40:47;;;;;;;6.62;1.70;;;11.70;40.80;;;;;;2368083;53;20961;-61
2021/04/06 10:43:20;;;;;;;5.55;1.80;;;11.90;40.40;;;;;;2618874;52;20922;-65
2021/04/06 10:45:48;;;;;;;3.97;1.40;;;12.00;39.60;;;;;;2608329;52;20971;-64
2021/04/06 10:48:20;;;;;;;5.97;1.60;;;12.10;40.10;;;;;;2363836;53;21017;-63
2021/04/06 10:50:54;;;;;;;4.32;1.45;;;12.30;40.70;;;;;;2349043;53;21463;-64
2021/04/06 10:53:29;;;;;;;4.22;1.45;;;12.60;41.40;;;;;;2619339;52;20985;-63
2021/04/06 10:56:31;;;;;;;8.02;1.75;;;12.90;41.60;;;;;;2617430;52;20921;-66
2021/04/06 10:59:06;;;;;;;3.72;1.20;;;13.30;41.50;;;;;;2367721;53;20901;-65
2021/04/06 11:02:06;;;;;;;6.57;1.90;;;13.50;41.60;;;;;;2368258;53;21097;-65
2021/04/06 11:04:41;;;;;;;5.87;1.77;;;13.80;39.90;;;;;;2606356;52;20906;-63
2021/04/06 11:07:09;;;;;;;6.25;1.52;;;13.80;39.40;;;;;;2351380;54;20897;-65
2021/04/06 11:09:38;;;;;;;4.75;1.33;;;13.80;39.20;;;;;;2368108;53;21341;-63
2021/04/06 11:12:10;;;;;;;5.57;1.80;;;13.70;38.20;;;;;;2367854;53;20861;-65
2021/04/06 11:14:42;;;;;;;5.10;1.70;;;13.60;37.50;;;;;;2605204;52;20986;-65
2021/04/06 11:17:10;;;;;;;5.40;1.77;;;13.40;37.10;;;;;;2601576;52;21535;-63
2021/04/06 11:19:41;;;;;;;6.85;2.17;;;13.20;36.60;;;;;;2352299;53;20893;-63
2021/04/06 11:22:11;;;;;;;6.55;1.65;;;13.00;36.50;;;;;;2352410;53;20922;-67
2021/04/06 11:24:38;;;;;;;7.97;1.75;;;12.70;36.60;;;;;;2334460;54;21006;-62
2021/04/06 11:27:06;;;;;;;4.35;1.83;;;12.50;36.60;;;;;;2367520;53;20925;-62
2021/04/06 11:29:33;;;;;;;5.62;1.70;;;12.30;36.50;;;;;;2363647;53;20938;-64
2021/04/06 11:32:05;;;;;;;4.32;1.33;;;12.00;36.30;;;;;;2594111;52;20949;-61
2021/04/06 11:34:33;;;;;;;5.55;1.40;;;11.80;36.50;;;;;;2367646;53;20961;-64
2021/04/06 11:36:59;;;;;;;6.12;1.45;;;11.60;36.60;;;;;;2352418;53;21512;-64
2021/04/06 11:39:28;;;;;;;3.78;1.48;;;11.50;36.80;;;;;;2619578;52;20968;-65
2021/04/06 11:41:56;;;;;;;5.43;1.75;;;11.30;36.90;;;;;;2367393;53;20938;-65
2021/04/06 11:44:22;;;;;;;4.20;1.73;;;11.20;37.00;;;;;;2367238;53;20928;-64
2021/04/06 11:46:49;;;;;;;4.22;1.35;;;11.10;37.10;;;;;;2618709;52;20965;-63
2021/04/06 11:49:16;;;;;;;5.62;1.40;;;10.90;37.00;;;;;;2619290;52;20982;-63
2021/04/06 11:51:43;;;;;;;3.62;1.08;;;10.80;37.20;;;;;;2368239;53;20925;-65
2021/04/06 11:54:11;;;;;;;3.45;1.00;;;10.80;37.40;;;;;;2619883;52;20949;-63
2021/04/06 11:56:38;;;;;;;2.80;0.85;;;10.70;37.40;;;;;;2347909;53;20992;-62
2021/04/06 11:59:05;;;;;;;3.47;0.85;;;10.60;37.30;;;;;;2332355;54;20943;-65
2021/04/06 12:01:32;;;;;;;2.67;0.98;;;10.50;37.30;;;;;;2582177;53;21444;-65
2021/04/06 12:03:58;;;;;;;4.53;1.08;;;10.50;37.60;;;;;;2343524;53;20981;-65
2021/04/06 12:06:25;;;;;;;3.22;0.80;;;10.40;37.60;;;;;;2348091;53;21052;-64
2021/04/06 12:08:51;;;;;;;2.58;0.80;;;10.40;37.90;;;;;;2333515;53;21044;-63
2021/04/06 12:11:18;;;;;;;3.62;1.00;;;10.50;38.70;;;;;;2330068;54;21818;-64
2021/04/06 12:13:44;;;;;;;2.30;0.90;;;10.60;39.60;;;;;;2350237;53;20925;-64
2021/04/06 12:16:10;;;;;;;3.28;0.98;;;10.90;40.10;;;;;;2336786;53;21034;-64
2021/04/06 12:18:37;;;;;;;3.47;0.75;;;11.20;40.50;;;;;;2583131;52;20992;-63
2021/04/06 12:21:08;;;;;;;3.12;0.80;;;11.50;40.00;;;;;;2590694;53;21012;-63
2021/04/06 12:23:35;;;;;;;3.12;0.98;;;11.60;38.90;;;;;;2344628;54;20951;-63
2021/04/06 12:26:03;;;;;;;3.90;1.00;;;11.70;38.10;;;;;;2348558;53;21027;-63
2021/04/06 12:28:29;;;;;;;2.80;0.80;;;11.70;37.60;;;;;;2590716;53;21382;-65
2021/04/06 12:30:58;;;;;;;2.95;0.82;;;11.80;37.80;;;;;;2348928;53;20998;-63
2021/04/06 12:33:24;;;;;;;3.22;0.82;;;11.90;38.10;;;;;;2590921;53;20948;-63
2021/04/06 12:35:51;;;;;;;3.53;1.02;;;12.10;38.30;;;;;;2343710;53;20984;-65
2021/04/06 12:38:17;;;;;;;3.35;0.98;;;12.10;37.80;;;;;;2347218;53;20958;-62
2021/04/06 12:40:44;;;;;;;3.22;1.00;;;12.20;37.40;;;;;;2349792;53;20953;-65
2021/04/06 12:43:10;;;;;;;3.22;1.10;;;12.20;36.90;;;;;;2352141;53;20947;-63
2021/04/06 12:45:37;;;;;;;3.53;1.12;;;12.20;36.30;;;;;;2354495;53;21037;-62
2021/04/06 12:48:03;;;;;;;2.87;1.05;;;12.20;36.00;;;;;;2349838;54;20932;-63
2021/04/06 12:50:30;;;;;;;4.68;1.00;;;12.10;35.50;;;;;;2607526;52;21315;-63
2021/04/06 12:52:57;;;;;;;2.58;0.93;;;11.90;35.70;;;;;;2608916;52;21021;-62
2021/04/06 12:55:24;;;;;;;3.72;1.08;;;11.80;34.90;;;;;;2356704;53;20965;-63
2021/04/06 12:57:50;;;;;;;2.62;0.90;;;11.70;34.80;;;;;;2350332;53;20902;-65
2021/04/06 13:00:17;;;;;;;3.45;0.70;;;11.50;34.40;;;;;;2367788;53;20945;-64
2021/04/06 13:02:43;;;;;;;2.15;0.73;;;11.20;34.00;;;;;;2370328;53;21371;-64
2021/04/06 13:05:13;;;;;;;1.40;0.60;;;10.90;34.30;;;;;;2349591;53;20980;-61
2021/04/06 13:07:39;;;;;;;1.90;0.50;;;10.60;33.70;;;;;;2362862;53;20881;-63
2021/04/06 13:10:11;;;;;;;2.03;0.82;;;10.40;33.90;;;;;;2368326;53;20921;-61
2021/04/06 13:12:39;;;;;;;2.15;0.70;;;10.10;34.00;;;;;;2595669;52;20965;-63
2021/04/06 13:15:07;;;;;;;2.40;0.60;;;9.90;35.00;;;;;;2367656;53;20889;-62
2021/04/06 13:17:33;;;;;;;2.12;0.73;;;9.70;35.20;;;;;;2367414;53;21712;-63